sensor_id;sensor_type;location;lat;lon;timestamp;pressure;altitude;pressure_sealevel;temperature;humidity
51926;BME280;37952;51.938;15.480;2023-06-04T00:01:03;100343.41;;;17.36;28.22
51926;BME280;37952;51.938;15.480;2023-06-04T00:04:31;100337.81;;;17.35;28.15
51926;BME280;37952;51.938;15.480;2023-06-04T00:07:33;100337.02;;;17.34;28.22
51926;BME280;37952;51.938;15.480;2023-06-04T00:10:36;100336.27;;;17.32;28.34
51926;BME280;37952;51.938;15.480;2023-06-04T00:13:42;100330.92;;;17.29;28.28
51926;BME280;37952;51.938;15.480;2023-06-04T00:23:21;100335.70;;;17.09;28.55
51926;BME280;37952;51.938;15.480;2023-06-04T00:26:24;100333.30;;;16.92;29.08
51926;BME280;37952;51.938;15.480;2023-06-04T00:29:29;100333.56;;;16.83;28.96
51926;BME280;37952;51.938;15.480;2023-06-04T00:32:32;100334.20;;;16.82;29.16
51926;BME280;37952;51.938;15.480;2023-06-04T00:35:34;100334.90;;;16.82;29.30
51926;BME280;37952;51.938;15.480;2023-06-04T00:38:37;100331.27;;;16.81;29.27
51926;BME280;37952;51.938;15.480;2023-06-04T00:41:40;100332.40;;;16.80;29.37
51926;BME280;37952;51.938;15.480;2023-06-04T00:44:43;100332.15;;;16.75;29.41
51926;BME280;37952;51.938;15.480;2023-06-04T00:47:47;100328.11;;;16.66;29.46
51926;BME280;37952;51.938;15.480;2023-06-04T00:54:43;100331.02;;;16.47;29.74
51926;BME280;37952;51.938;15.480;2023-06-04T01:01:46;100331.04;;;16.28;30.09
51926;BME280;37952;51.938;15.480;2023-06-04T01:05:04;100329.15;;;16.08;30.17
51926;BME280;37952;51.938;15.480;2023-06-04T01:08:11;100328.77;;;15.88;30.30
51926;BME280;37952;51.938;15.480;2023-06-04T01:14:50;100327.80;;;15.85;30.58
51926;BME280;37952;51.938;15.480;2023-06-04T01:17:58;100327.30;;;15.77;30.95
51926;BME280;37952;51.938;15.480;2023-06-04T01:21:08;100327.05;;;15.65;30.89
51926;BME280;37952;51.938;15.480;2023-06-04T01:24:12;100327.90;;;15.61;31.02
51926;BME280;37952;51.938;15.480;2023-06-04T01:31:07;100327.12;;;15.79;31.10
51926;BME280;37952;51.938;15.480;2023-06-04T01:34:11;100333.73;;;15.81;31.02
51926;BME280;37952;51.938;15.480;2023-06-04T01:37:30;100334.98;;;15.76;31.17
51926;BME280;37952;51.938;15.480;2023-06-04T01:40:33;100331.49;;;15.70;31.28
51926;BME280;37952;51.938;15.480;2023-06-04T01:43:36;100329.57;;;15.65;31.43
51926;BME280;37952;51.938;15.480;2023-06-04T01:46:38;100332.25;;;15.62;31.51
51926;BME280;37952;51.938;15.480;2023-06-04T01:49:41;100330.60;;;15.63;31.59
51926;BME280;37952;51.938;15.480;2023-06-04T01:52:44;100327.73;;;15.63;31.56
51926;BME280;37952;51.938;15.480;2023-06-04T01:55:47;100324.94;;;15.68;31.65
51926;BME280;37952;51.938;15.480;2023-06-04T01:58:51;100326.38;;;15.72;31.72
51926;BME280;37952;51.938;15.480;2023-06-04T02:01:54;100320.04;;;15.76;31.63
51926;BME280;37952;51.938;15.480;2023-06-04T02:04:57;100322.34;;;15.81;31.51
51926;BME280;37952;51.938;15.480;2023-06-04T02:08:00;100325.13;;;15.84;31.52
51926;BME280;37952;51.938;15.480;2023-06-04T02:11:04;100324.50;;;15.81;31.56
51926;BME280;37952;51.938;15.480;2023-06-04T02:17:27;100322.87;;;15.62;32.28
51926;BME280;37952;51.938;15.480;2023-06-04T02:20:30;100322.07;;;15.48;32.33
51926;BME280;37952;51.938;15.480;2023-06-04T02:23:33;100317.94;;;15.41;32.35
51926;BME280;37952;51.938;15.480;2023-06-04T02:26:36;100312.47;;;15.41;32.42
51926;BME280;37952;51.938;15.480;2023-06-04T02:29:46;100310.12;;;15.42;32.50
51926;BME280;37952;51.938;15.480;2023-06-04T02:32:49;100307.97;;;15.44;32.45
51926;BME280;37952;51.938;15.480;2023-06-04T02:36:03;100308.20;;;15.46;32.52
51926;BME280;37952;51.938;15.480;2023-06-04T02:39:06;100307.04;;;15.47;32.45
51926;BME280;37952;51.938;15.480;2023-06-04T02:42:09;100307.06;;;15.47;32.39
51926;BME280;37952;51.938;15.480;2023-06-04T02:45:12;100304.05;;;15.46;32.35
51926;BME280;37952;51.938;15.480;2023-06-04T02:48:14;100305.73;;;15.45;32.58
51926;BME280;37952;51.938;15.480;2023-06-04T02:51:17;100306.11;;;15.42;32.67
51926;BME280;37952;51.938;15.480;2023-06-04T02:54:20;100306.30;;;15.35;32.73
51926;BME280;37952;51.938;15.480;2023-06-04T02:57:23;100306.36;;;15.32;32.87
51926;BME280;37952;51.938;15.480;2023-06-04T03:00:26;100307.04;;;15.32;33.00
51926;BME280;37952;51.938;15.480;2023-06-04T03:03:43;100306.66;;;15.32;33.10
51926;BME280;37952;51.938;15.480;2023-06-04T03:06:48;100305.23;;;15.30;33.08
51926;BME280;37952;51.938;15.480;2023-06-04T03:09:55;100306.65;;;15.30;33.03
51926;BME280;37952;51.938;15.480;2023-06-04T03:13:03;100306.13;;;15.25;32.91
51926;BME280;37952;51.938;15.480;2023-06-04T03:16:06;100309.52;;;15.22;33.11
51926;BME280;37952;51.938;15.480;2023-06-04T03:19:12;100308.25;;;15.25;33.11
51926;BME280;37952;51.938;15.480;2023-06-04T03:22:15;100313.43;;;15.25;33.16
51926;BME280;37952;51.938;15.480;2023-06-04T03:25:18;100316.31;;;15.21;33.37
51926;BME280;37952;51.938;15.480;2023-06-04T03:28:21;100321.00;;;15.13;33.54
51926;BME280;37952;51.938;15.480;2023-06-04T03:31:23;100322.70;;;15.06;33.70
51926;BME280;37952;51.938;15.480;2023-06-04T03:38:07;100326.88;;;14.92;34.19
51926;BME280;37952;51.938;15.480;2023-06-04T03:41:10;100325.41;;;14.88;34.34
51926;BME280;37952;51.938;15.480;2023-06-04T03:44:14;100322.69;;;14.81;34.58
51926;BME280;37952;51.938;15.480;2023-06-04T03:47:17;100325.91;;;14.77;34.80
51926;BME280;37952;51.938;15.480;2023-06-04T03:50:20;100323.61;;;14.75;34.87
51926;BME280;37952;51.938;15.480;2023-06-04T03:53:23;100325.59;;;14.69;34.95
51926;BME280;37952;51.938;15.480;2023-06-04T03:56:26;100321.77;;;14.66;35.06
51926;BME280;37952;51.938;15.480;2023-06-04T03:59:29;100326.58;;;14.65;35.21
51926;BME280;37952;51.938;15.480;2023-06-04T04:02:32;100332.27;;;14.60;35.48
51926;BME280;37952;51.938;15.480;2023-06-04T04:05:35;100333.05;;;14.56;35.46
51926;BME280;37952;51.938;15.480;2023-06-04T04:08:39;100326.57;;;14.57;35.59
51926;BME280;37952;51.938;15.480;2023-06-04T04:11:44;100327.40;;;14.58;35.76
51926;BME280;37952;51.938;15.480;2023-06-04T04:14:52;100330.23;;;14.58;35.75
51926;BME280;37952;51.938;15.480;2023-06-04T04:17:55;100330.81;;;14.60;35.99
51926;BME280;37952;51.938;15.480;2023-06-04T04:20:58;100329.80;;;14.62;35.88
51926;BME280;37952;51.938;15.480;2023-06-04T04:24:00;100326.73;;;14.60;35.97
51926;BME280;37952;51.938;15.480;2023-06-04T04:27:04;100327.31;;;14.59;35.94
51926;BME280;37952;51.938;15.480;2023-06-04T04:30:08;100327.31;;;14.62;36.24
51926;BME280;37952;51.938;15.480;2023-06-04T04:33:12;100324.88;;;14.64;36.28
51926;BME280;37952;51.938;15.480;2023-06-04T04:36:18;100331.06;;;14.59;36.56
51926;BME280;37952;51.938;15.480;2023-06-04T04:39:24;100332.45;;;14.62;36.72
51926;BME280;37952;51.938;15.480;2023-06-04T04:50:11;100333.95;;;14.66;37.17
51926;BME280;37952;51.938;15.480;2023-06-04T04:53:14;100332.62;;;14.70;36.99
51926;BME280;37952;51.938;15.480;2023-06-04T04:56:16;100333.96;;;14.69;36.68
51926;BME280;37952;51.938;15.480;2023-06-04T04:59:19;100336.41;;;14.61;36.89
51926;BME280;37952;51.938;15.480;2023-06-04T05:06:22;100337.19;;;14.53;37.15
51926;BME280;37952;51.938;15.480;2023-06-04T05:09:24;100339.68;;;14.63;36.99
51926;BME280;37952;51.938;15.480;2023-06-04T05:12:29;100341.45;;;14.71;36.86
51926;BME280;37952;51.938;15.480;2023-06-04T05:15:40;100341.81;;;14.76;36.73
51926;BME280;37952;51.938;15.480;2023-06-04T05:18:44;100346.21;;;14.87;36.85
51926;BME280;37952;51.938;15.480;2023-06-04T05:21:47;100347.08;;;14.98;36.83
51926;BME280;37952;51.938;15.480;2023-06-04T05:24:51;100349.41;;;15.03;36.74
51926;BME280;37952;51.938;15.480;2023-06-04T05:27:56;100348.56;;;15.05;36.71
51926;BME280;37952;51.938;15.480;2023-06-04T05:30:59;100354.45;;;15.07;36.91
51926;BME280;37952;51.938;15.480;2023-06-04T05:37:52;100358.75;;;15.21;36.91
51926;BME280;37952;51.938;15.480;2023-06-04T05:40:56;100358.64;;;15.23;37.02
51926;BME280;37952;51.938;15.480;2023-06-04T05:44:02;100358.98;;;15.21;37.04
51926;BME280;37952;51.938;15.480;2023-06-04T05:47:05;100361.73;;;15.22;37.13
51926;BME280;37952;51.938;15.480;2023-06-04T05:50:09;100361.05;;;15.30;37.11
51926;BME280;37952;51.938;15.480;2023-06-04T05:53:12;100366.14;;;15.35;37.12
51926;BME280;37952;51.938;15.480;2023-06-04T05:56:22;100365.52;;;15.39;37.21
51926;BME280;37952;51.938;15.480;2023-06-04T05:59:25;100369.73;;;15.40;37.13
51926;BME280;37952;51.938;15.480;2023-06-04T06:02:27;100370.83;;;15.44;37.10
51926;BME280;37952;51.938;15.480;2023-06-04T06:05:30;100372.47;;;15.46;37.15
51926;BME280;37952;51.938;15.480;2023-06-04T06:08:33;100372.36;;;15.50;37.23
51926;BME280;37952;51.938;15.480;2023-06-04T06:11:36;100371.06;;;15.54;37.29
51926;BME280;37952;51.938;15.480;2023-06-04T06:14:39;100371.65;;;15.55;37.30
51926;BME280;37952;51.938;15.480;2023-06-04T06:17:42;100372.59;;;15.57;37.29
51926;BME280;37952;51.938;15.480;2023-06-04T06:20:45;100373.41;;;15.60;37.24
51926;BME280;37952;51.938;15.480;2023-06-04T06:23:48;100379.05;;;15.64;37.22
51926;BME280;37952;51.938;15.480;2023-06-04T06:34:43;100371.73;;;15.79;37.13
51926;BME280;37952;51.938;15.480;2023-06-04T06:37:46;100373.02;;;15.83;36.89
51926;BME280;37952;51.938;15.480;2023-06-04T06:40:50;100371.50;;;15.87;36.91
51926;BME280;37952;51.938;15.480;2023-06-04T06:47:43;100381.22;;;15.95;36.80
51926;BME280;37952;51.938;15.480;2023-06-04T06:54:28;100381.63;;;16.05;36.71
51926;BME280;37952;51.938;15.480;2023-06-04T06:57:31;100382.55;;;16.09;36.56
51926;BME280;37952;51.938;15.480;2023-06-04T07:01:07;100386.92;;;16.13;36.47
51926;BME280;37952;51.938;15.480;2023-06-04T07:04:10;100388.00;;;16.15;36.33
51926;BME280;37952;51.938;15.480;2023-06-04T07:07:19;100391.90;;;16.20;36.40
51926;BME280;37952;51.938;15.480;2023-06-04T07:10:22;100394.31;;;16.26;36.14
51926;BME280;37952;51.938;15.480;2023-06-04T07:13:26;100391.16;;;16.30;36.03
51926;BME280;37952;51.938;15.480;2023-06-04T07:16:29;100392.29;;;16.34;35.93
51926;BME280;37952;51.938;15.480;2023-06-04T07:19:32;100386.52;;;16.38;35.80
51926;BME280;37952;51.938;15.480;2023-06-04T07:22:39;100387.08;;;16.42;35.84
51926;BME280;37952;51.938;15.480;2023-06-04T07:25:42;100387.95;;;16.45;35.52
51926;BME280;37952;51.938;15.480;2023-06-04T07:28:45;100385.98;;;16.50;35.34
51926;BME280;37952;51.938;15.480;2023-06-04T07:31:49;100387.82;;;16.54;35.25
51926;BME280;37952;51.938;15.480;2023-06-04T07:34:52;100385.45;;;16.57;35.23
51926;BME280;37952;51.938;15.480;2023-06-04T07:37:54;100390.95;;;16.62;35.41
51926;BME280;37952;51.938;15.480;2023-06-04T07:40:57;100391.56;;;16.65;35.24
51926;BME280;37952;51.938;15.480;2023-06-04T07:44:00;100396.78;;;16.69;35.28
51926;BME280;37952;51.938;15.480;2023-06-04T07:47:02;100396.67;;;16.73;35.16
51926;BME280;37952;51.938;15.480;2023-06-04T07:50:06;100393.41;;;16.76;35.27
51926;BME280;37952;51.938;15.480;2023-06-04T07:53:19;100397.23;;;16.80;35.34
51926;BME280;37952;51.938;15.480;2023-06-04T07:56:22;100395.96;;;16.82;35.20
51926;BME280;37952;51.938;15.480;2023-06-04T08:03:19;100392.86;;;16.90;35.03
51926;BME280;37952;51.938;15.480;2023-06-04T08:06:28;100391.81;;;16.95;35.15
51926;BME280;37952;51.938;15.480;2023-06-04T08:09:31;100393.02;;;16.98;35.13
51926;BME280;37952;51.938;15.480;2023-06-04T08:12:33;100394.09;;;17.00;35.37
51926;BME280;37952;51.938;15.480;2023-06-04T08:19:12;100402.04;;;17.05;35.24
51926;BME280;37952;51.938;15.480;2023-06-04T08:22:16;100402.55;;;17.11;35.16
51926;BME280;37952;51.938;15.480;2023-06-04T08:25:19;100400.65;;;17.15;34.87
51926;BME280;37952;51.938;15.480;2023-06-04T08:28:21;100402.99;;;17.19;34.62
51926;BME280;37952;51.938;15.480;2023-06-04T08:31:24;100401.20;;;17.22;34.39
51926;BME280;37952;51.938;15.480;2023-06-04T08:34:27;100400.95;;;17.25;34.04
51926;BME280;37952;51.938;15.480;2023-06-04T08:37:30;100397.27;;;17.29;34.17
51926;BME280;37952;51.938;15.480;2023-06-04T08:40:33;100396.54;;;17.29;33.99
51926;BME280;37952;51.938;15.480;2023-06-04T08:43:39;100402.20;;;17.29;34.00
51926;BME280;37952;51.938;15.480;2023-06-04T08:46:43;100407.64;;;17.33;33.63
51926;BME280;37952;51.938;15.480;2023-06-04T08:53:30;100413.23;;;17.37;33.28
51926;BME280;37952;51.938;15.480;2023-06-04T08:57:06;100407.99;;;17.40;32.76
51926;BME280;37952;51.938;15.480;2023-06-04T09:00:10;100412.72;;;17.36;33.05
51926;BME280;37952;51.938;15.480;2023-06-04T09:03:15;100415.98;;;17.40;32.72
51926;BME280;37952;51.938;15.480;2023-06-04T09:06:18;100418.30;;;17.44;32.90
51926;BME280;37952;51.938;15.480;2023-06-04T09:09:22;100414.66;;;17.48;32.75
51926;BME280;37952;51.938;15.480;2023-06-04T09:12:27;100404.62;;;17.49;32.79
51926;BME280;37952;51.938;15.480;2023-06-04T09:15:30;100406.84;;;17.52;32.42
51926;BME280;37952;51.938;15.480;2023-06-04T09:18:32;100403.41;;;17.57;32.39
51926;BME280;37952;51.938;15.480;2023-06-04T09:24:54;100396.52;;;17.65;32.27
51926;BME280;37952;51.938;15.480;2023-06-04T09:28:05;100392.66;;;17.64;32.13
51926;BME280;37952;51.938;15.480;2023-06-04T09:31:16;100392.89;;;17.73;32.19
51926;BME280;37952;51.938;15.480;2023-06-04T09:34:27;100398.50;;;17.76;32.19
51926;BME280;37952;51.938;15.480;2023-06-04T09:37:30;100394.27;;;17.82;32.02
51926;BME280;37952;51.938;15.480;2023-06-04T09:48:21;100394.86;;;17.97;32.08
51926;BME280;37952;51.938;15.480;2023-06-04T09:51:24;100394.48;;;18.04;31.88
51926;BME280;37952;51.938;15.480;2023-06-04T10:01:59;100390.35;;;18.18;31.45
51926;BME280;37952;51.938;15.480;2023-06-04T10:05:02;100394.00;;;18.21;31.45
51926;BME280;37952;51.938;15.480;2023-06-04T10:08:08;100397.48;;;18.25;31.35
51926;BME280;37952;51.938;15.480;2023-06-04T10:11:13;100393.07;;;18.28;31.40
51926;BME280;37952;51.938;15.480;2023-06-04T10:14:23;100396.50;;;18.32;31.48
51926;BME280;37952;51.938;15.480;2023-06-04T10:26:27;100383.16;;;18.42;31.32
51926;BME280;37952;51.938;15.480;2023-06-04T10:29:30;100385.84;;;18.47;31.13
51926;BME280;37952;51.938;15.480;2023-06-04T10:32:45;100384.18;;;18.49;30.64
51926;BME280;37952;51.938;15.480;2023-06-04T10:35:55;100379.64;;;18.50;30.87
51926;BME280;37952;51.938;15.480;2023-06-04T10:39:00;100380.21;;;18.54;30.87
51926;BME280;37952;51.938;15.480;2023-06-04T10:42:04;100384.27;;;18.60;30.83
51926;BME280;37952;51.938;15.480;2023-06-04T10:48:59;100385.72;;;18.72;30.51
51926;BME280;37952;51.938;15.480;2023-06-04T10:52:12;100386.59;;;18.78;30.62
51926;BME280;37952;51.938;15.480;2023-06-04T10:55:15;100379.45;;;18.84;30.40
51926;BME280;37952;51.938;15.480;2023-06-04T10:58:18;100378.12;;;18.87;30.18
51926;BME280;37952;51.938;15.480;2023-06-04T11:01:27;100381.13;;;18.90;30.07
51926;BME280;37952;51.938;15.480;2023-06-04T11:04:33;100378.96;;;18.99;30.04
51926;BME280;37952;51.938;15.480;2023-06-04T11:07:48;100371.61;;;19.08;30.04
51926;BME280;37952;51.938;15.480;2023-06-04T11:10:51;100372.50;;;19.16;29.89
51926;BME280;37952;51.938;15.480;2023-06-04T11:13:54;100375.17;;;19.24;29.46
51926;BME280;37952;51.938;15.480;2023-06-04T11:16:57;100370.45;;;19.29;29.24
51926;BME280;37952;51.938;15.480;2023-06-04T11:19:59;100368.31;;;19.36;29.28
51926;BME280;37952;51.938;15.480;2023-06-04T11:23:03;100367.55;;;19.42;29.04
51926;BME280;37952;51.938;15.480;2023-06-04T11:26:06;100367.13;;;19.49;28.79
51926;BME280;37952;51.938;15.480;2023-06-04T11:29:11;100366.29;;;19.57;28.92
51926;BME280;37952;51.938;15.480;2023-06-04T11:36:01;100361.48;;;19.72;28.94
51926;BME280;37952;51.938;15.480;2023-06-04T11:39:04;100361.36;;;19.82;29.30
51926;BME280;37952;51.938;15.480;2023-06-04T11:42:09;100361.40;;;19.92;29.17
51926;BME280;37952;51.938;15.480;2023-06-04T11:48:37;100351.96;;;20.11;29.10
51926;BME280;37952;51.938;15.480;2023-06-04T12:02:31;100344.20;;;20.51;28.71
51926;BME280;37952;51.938;15.480;2023-06-04T12:05:34;100344.23;;;20.62;27.87
51926;BME280;37952;51.938;15.480;2023-06-04T12:15:54;100348.06;;;20.98;28.07
51926;BME280;37952;51.938;15.480;2023-06-04T12:19:07;100344.59;;;21.08;28.20
51926;BME280;37952;51.938;15.480;2023-06-04T12:26:01;100340.27;;;21.26;27.98
51926;BME280;37952;51.938;15.480;2023-06-04T12:29:17;100344.63;;;21.38;27.88
51926;BME280;37952;51.938;15.480;2023-06-04T12:32:20;100345.60;;;21.50;27.50
51926;BME280;37952;51.938;15.480;2023-06-04T12:35:23;100339.80;;;21.62;27.48
51926;BME280;37952;51.938;15.480;2023-06-04T12:38:26;100342.50;;;21.73;27.35
51926;BME280;37952;51.938;15.480;2023-06-04T12:41:29;100340.20;;;21.71;27.07
51926;BME280;37952;51.938;15.480;2023-06-04T12:44:32;100337.19;;;21.74;27.29
51926;BME280;37952;51.938;15.480;2023-06-04T12:47:37;100339.46;;;21.86;27.31
51926;BME280;37952;51.938;15.480;2023-06-04T12:50:41;100336.40;;;21.97;27.26
51926;BME280;37952;51.938;15.480;2023-06-04T12:53:44;100334.59;;;22.10;27.20
51926;BME280;37952;51.938;15.480;2023-06-04T12:56:48;100332.50;;;22.24;27.15
51926;BME280;37952;51.938;15.480;2023-06-04T12:59:51;100335.15;;;22.35;26.74
51926;BME280;37952;51.938;15.480;2023-06-04T13:02:53;100334.92;;;22.48;26.82
51926;BME280;37952;51.938;15.480;2023-06-04T13:06:08;100330.18;;;22.62;26.86
51926;BME280;37952;51.938;15.480;2023-06-04T13:09:11;100330.55;;;22.75;26.69
51926;BME280;37952;51.938;15.480;2023-06-04T13:12:14;100327.23;;;22.90;26.24
51926;BME280;37952;51.938;15.480;2023-06-04T13:15:17;100326.90;;;23.05;26.12
51926;BME280;37952;51.938;15.480;2023-06-04T13:18:20;100326.29;;;23.22;26.09
51926;BME280;37952;51.938;15.480;2023-06-04T13:21:23;100324.02;;;23.38;26.05
51926;BME280;37952;51.938;15.480;2023-06-04T13:24:26;100325.67;;;23.55;25.91
51926;BME280;37952;51.938;15.480;2023-06-04T13:27:29;100321.63;;;23.73;25.82
51926;BME280;37952;51.938;15.480;2023-06-04T13:30:32;100324.58;;;23.93;25.79
51926;BME280;37952;51.938;15.480;2023-06-04T13:33:35;100322.54;;;24.15;25.68
51926;BME280;37952;51.938;15.480;2023-06-04T13:36:38;100323.34;;;24.44;25.19
51926;BME280;37952;51.938;15.480;2023-06-04T13:43:11;100323.35;;;25.08;24.82
51926;BME280;37952;51.938;15.480;2023-06-04T13:46:13;100320.30;;;25.82;24.36
51926;BME280;37952;51.938;15.480;2023-06-04T13:49:16;100318.95;;;26.22;23.69
51926;BME280;37952;51.938;15.480;2023-06-04T13:52:19;100317.85;;;26.59;23.51
51926;BME280;37952;51.938;15.480;2023-06-04T13:59:15;100318.38;;;29.06;21.51
51926;BME280;37952;51.938;15.480;2023-06-04T14:02:18;100315.42;;;30.48;20.42
51926;BME280;37952;51.938;15.480;2023-06-04T14:05:21;100314.38;;;31.83;19.69
51926;BME280;37952;51.938;15.480;2023-06-04T14:08:24;100308.40;;;32.92;18.98
51926;BME280;37952;51.938;15.480;2023-06-04T14:14:57;100312.86;;;34.54;18.17
51926;BME280;37952;51.938;15.480;2023-06-04T14:18:34;100313.32;;;35.13;17.55
51926;BME280;37952;51.938;15.480;2023-06-04T14:21:37;100306.02;;;35.82;17.55
51926;BME280;37952;51.938;15.480;2023-06-04T14:24:40;100310.97;;;36.32;17.28
51926;BME280;37952;51.938;15.480;2023-06-04T14:27:43;100296.39;;;36.62;16.36
51926;BME280;37952;51.938;15.480;2023-06-04T14:30:46;100288.38;;;35.97;15.77
51926;BME280;37952;51.938;15.480;2023-06-04T14:33:49;100291.82;;;34.77;16.76
51926;BME280;37952;51.938;15.480;2023-06-04T14:36:52;100291.91;;;34.05;17.19
51926;BME280;37952;51.938;15.480;2023-06-04T14:40:07;100292.93;;;33.32;17.92
51926;BME280;37952;51.938;15.480;2023-06-04T14:43:11;100295.90;;;32.87;18.33
51926;BME280;37952;51.938;15.480;2023-06-04T14:46:14;100289.52;;;32.73;18.73
51926;BME280;37952;51.938;15.480;2023-06-04T14:49:22;100289.19;;;32.58;18.22
51926;BME280;37952;51.938;15.480;2023-06-04T14:52:25;100291.15;;;32.51;18.50
51926;BME280;37952;51.938;15.480;2023-06-04T14:55:28;100286.02;;;32.42;18.22
51926;BME280;37952;51.938;15.480;2023-06-04T14:58:30;100281.20;;;32.09;18.10
51926;BME280;37952;51.938;15.480;2023-06-04T15:01:40;100291.58;;;31.77;18.09
51926;BME280;37952;51.938;15.480;2023-06-04T15:04:43;100285.44;;;31.45;18.37
51926;BME280;37952;51.938;15.480;2023-06-04T15:07:47;100284.85;;;31.31;18.25
51926;BME280;37952;51.938;15.480;2023-06-04T15:10:50;100280.79;;;31.11;18.19
51926;BME280;37952;51.938;15.480;2023-06-04T15:13:53;100278.56;;;30.86;17.78
51926;BME280;37952;51.938;15.480;2023-06-04T15:17:05;100277.21;;;30.37;18.30
51926;BME280;37952;51.938;15.480;2023-06-04T15:20:09;100273.98;;;29.97;18.41
51926;BME280;37952;51.938;15.480;2023-06-04T15:23:12;100271.20;;;29.77;18.48
51926;BME280;37952;51.938;15.480;2023-06-04T15:26:15;100277.65;;;29.66;18.79
51926;BME280;37952;51.938;15.480;2023-06-04T15:29:19;100272.65;;;29.60;18.67
51926;BME280;37952;51.938;15.480;2023-06-04T15:32:21;100272.16;;;29.51;18.77
51926;BME280;37952;51.938;15.480;2023-06-04T15:35:24;100268.38;;;29.46;18.69
51926;BME280;37952;51.938;15.480;2023-06-04T15:38:27;100265.46;;;29.36;18.72
51926;BME280;37952;51.938;15.480;2023-06-04T15:41:33;100271.55;;;29.23;18.52
51926;BME280;37952;51.938;15.480;2023-06-04T15:44:36;100266.58;;;29.14;18.79
51926;BME280;37952;51.938;15.480;2023-06-04T15:47:38;100261.70;;;29.08;18.69
51926;BME280;37952;51.938;15.480;2023-06-04T15:50:41;100268.27;;;28.99;18.72
51926;BME280;37952;51.938;15.480;2023-06-04T15:53:44;100271.71;;;28.92;18.73
51926;BME280;37952;51.938;15.480;2023-06-04T15:56:57;100274.45;;;28.84;18.82
51926;BME280;37952;51.938;15.480;2023-06-04T16:00:00;100274.40;;;28.74;18.78
51926;BME280;37952;51.938;15.480;2023-06-04T16:03:03;100271.90;;;28.67;18.84
51926;BME280;37952;51.938;15.480;2023-06-04T16:06:06;100271.45;;;28.64;18.94
51926;BME280;37952;51.938;15.480;2023-06-04T16:09:09;100272.53;;;28.62;19.00
51926;BME280;37952;51.938;15.480;2023-06-04T16:12:12;100272.51;;;28.58;18.91
51926;BME280;37952;51.938;15.480;2023-06-04T16:15:15;100271.70;;;28.49;18.71
51926;BME280;37952;51.938;15.480;2023-06-04T16:18:26;100272.23;;;28.30;18.80
51926;BME280;37952;51.938;15.480;2023-06-04T16:21:29;100269.55;;;28.14;18.93
51926;BME280;37952;51.938;15.480;2023-06-04T16:24:32;100263.39;;;28.10;18.95
51926;BME280;37952;51.938;15.480;2023-06-04T16:27:35;100260.42;;;28.05;19.02
51926;BME280;37952;51.938;15.480;2023-06-04T16:30:38;100255.90;;;27.98;18.93
51926;BME280;37952;51.938;15.480;2023-06-04T16:33:41;100257.70;;;27.89;19.00
51926;BME280;37952;51.938;15.480;2023-06-04T16:36:55;100257.83;;;27.84;19.02
51926;BME280;37952;51.938;15.480;2023-06-04T16:39:58;100258.33;;;27.74;19.04
51926;BME280;37952;51.938;15.480;2023-06-04T16:43:01;100256.84;;;27.71;19.18
51926;BME280;37952;51.938;15.480;2023-06-04T16:46:03;100250.98;;;27.67;19.14
51926;BME280;37952;51.938;15.480;2023-06-04T16:49:07;100251.55;;;27.61;19.05
51926;BME280;37952;51.938;15.480;2023-06-04T16:52:36;100252.67;;;27.58;19.12
51926;BME280;37952;51.938;15.480;2023-06-04T16:55:39;100254.36;;;27.56;19.31
51926;BME280;37952;51.938;15.480;2023-06-04T16:58:42;100246.54;;;27.53;19.49
51926;BME280;37952;51.938;15.480;2023-06-04T17:01:47;100245.42;;;27.46;19.44
51926;BME280;37952;51.938;15.480;2023-06-04T17:04:50;100253.38;;;27.36;19.56
51926;BME280;37952;51.938;15.480;2023-06-04T17:07:53;100256.33;;;27.30;19.70
51926;BME280;37952;51.938;15.480;2023-06-04T17:10:56;100255.14;;;27.28;19.76
51926;BME280;37952;51.938;15.480;2023-06-04T17:13:59;100255.46;;;27.23;19.79
51926;BME280;37952;51.938;15.480;2023-06-04T17:17:02;100254.27;;;27.17;19.85
51926;BME280;37952;51.938;15.480;2023-06-04T17:20:06;100257.37;;;27.06;20.07
51926;BME280;37952;51.938;15.480;2023-06-04T17:23:23;100263.29;;;27.02;20.08
51926;BME280;37952;51.938;15.480;2023-06-04T17:26:26;100264.90;;;26.99;20.11
51926;BME280;37952;51.938;15.480;2023-06-04T17:29:32;100262.60;;;26.93;20.14
51926;BME280;37952;51.938;15.480;2023-06-04T17:32:36;100262.78;;;26.87;20.24
51926;BME280;37952;51.938;15.480;2023-06-04T17:35:40;100263.20;;;26.80;20.30
51926;BME280;37952;51.938;15.480;2023-06-04T17:38:44;100266.31;;;26.76;20.41
51926;BME280;37952;51.938;15.480;2023-06-04T17:41:47;100270.77;;;26.72;20.39
51926;BME280;37952;51.938;15.480;2023-06-04T17:44:50;100268.05;;;26.67;20.37
51926;BME280;37952;51.938;15.480;2023-06-04T17:47:53;100266.00;;;26.56;20.33
51926;BME280;37952;51.938;15.480;2023-06-04T17:50:56;100268.07;;;26.49;20.54
51926;BME280;37952;51.938;15.480;2023-06-04T17:53:59;100266.91;;;26.41;20.39
51926;BME280;37952;51.938;15.480;2023-06-04T17:57:02;100273.56;;;26.28;20.33
51926;BME280;37952;51.938;15.480;2023-06-04T18:00:06;100271.10;;;26.19;20.51
51926;BME280;37952;51.938;15.480;2023-06-04T18:03:10;100272.70;;;26.14;20.49
51926;BME280;37952;51.938;15.480;2023-06-04T18:06:16;100279.04;;;26.06;20.51
51926;BME280;37952;51.938;15.480;2023-06-04T18:09:19;100274.14;;;26.00;20.67
51926;BME280;37952;51.938;15.480;2023-06-04T18:12:22;100273.23;;;25.95;20.66
51926;BME280;37952;51.938;15.480;2023-06-04T18:15:25;100277.91;;;25.88;20.72